sensor_id;sensor_type;location;lat;lon;timestamp;P1;durP1;ratioP1;P2;durP2;ratioP2
7432;SDS011;32233;49.500;7.764;2022-08-19T00:00:50;29.43;;;22.40;;
7432;SDS011;32233;49.500;7.764;2022-08-19T00:03:17;27.53;;;22.67;;
7432;SDS011;32233;49.500;7.764;2022-08-19T00:05:43;27.90;;;22.73;;
7432;SDS011;32233;49.500;7.764;2022-08-19T00:08:10;27.67;;;22.63;;
7432;SDS011;32233;49.500;7.764;2022-08-19T00:10:36;27.20;;;22.70;;
7432;SDS011;32233;49.500;7.764;2022-08-19T00:13:03;26.70;;;22.70;;
7432;SDS011;32233;49.500;7.764;2022-08-19T00:15:30;24.47;;;21.47;;
7432;SDS011;32233;49.500;7.764;2022-08-19T00:17:56;28.67;;;23.43;;
7432;SDS011;32233;49.500;7.764;2022-08-19T00:20:23;27.33;;;22.77;;
7432;SDS011;32233;49.500;7.764;2022-08-19T00:22:49;27.10;;;22.77;;
7432;SDS011;32233;49.500;7.764;2022-08-19T00:25:16;25.30;;;22.57;;
7432;SDS011;32233;49.500;7.764;2022-08-19T00:27:43;27.57;;;22.43;;
7432;SDS011;32233;49.500;7.764;2022-08-19T00:30:09;28.17;;;23.70;;
7432;SDS011;32233;49.500;7.764;2022-08-19T00:32:36;29.07;;;24.13;;
7432;SDS011;32233;49.500;7.764;2022-08-19T00:35:04;31.90;;;25.13;;
7432;SDS011;32233;49.500;7.764;2022-08-19T00:37:31;28.23;;;23.63;;
7432;SDS011;32233;49.500;7.764;2022-08-19T00:39:59;26.90;;;22.60;;
7432;SDS011;32233;49.500;7.764;2022-08-19T00:42:25;28.03;;;23.70;;
7432;SDS011;32233;49.500;7.764;2022-08-19T00:44:54;27.67;;;23.33;;
7432;SDS011;32233;49.500;7.764;2022-08-19T00:47:20;31.07;;;24.37;;
7432;SDS011;32233;49.500;7.764;2022-08-19T00:49:48;27.90;;;23.80;;
7432;SDS011;32233;49.500;7.764;2022-08-19T00:52:22;28.50;;;22.37;;
7432;SDS011;32233;49.500;7.764;2022-08-19T00:54:50;28.23;;;23.47;;
7432;SDS011;32233;49.500;7.764;2022-08-19T00:57:18;27.17;;;23.30;;
7432;SDS011;32233;49.500;7.764;2022-08-19T00:59:47;27.20;;;23.47;;
7432;SDS011;32233;49.500;7.764;2022-08-19T01:02:27;26.30;;;21.93;;
7432;SDS011;32233;49.500;7.764;2022-08-19T01:04:54;31.10;;;23.93;;
7432;SDS011;32233;49.500;7.764;2022-08-19T01:07:21;29.70;;;23.73;;
7432;SDS011;32233;49.500;7.764;2022-08-19T01:09:49;29.43;;;24.47;;
7432;SDS011;32233;49.500;7.764;2022-08-19T01:12:15;27.43;;;23.43;;
7432;SDS011;32233;49.500;7.764;2022-08-19T01:14:42;30.60;;;23.97;;
7432;SDS011;32233;49.500;7.764;2022-08-19T01:17:09;30.30;;;23.90;;
7432;SDS011;32233;49.500;7.764;2022-08-19T01:19:37;30.10;;;23.97;;
7432;SDS011;32233;49.500;7.764;2022-08-19T01:22:19;28.67;;;24.40;;
7432;SDS011;32233;49.500;7.764;2022-08-19T01:24:56;29.20;;;24.00;;
7432;SDS011;32233;49.500;7.764;2022-08-19T01:27:24;29.43;;;24.03;;
7432;SDS011;32233;49.500;7.764;2022-08-19T01:29:51;30.40;;;24.40;;
7432;SDS011;32233;49.500;7.764;2022-08-19T01:32:17;31.07;;;24.33;;
7432;SDS011;32233;49.500;7.764;2022-08-19T01:34:59;28.70;;;24.20;;
7432;SDS011;32233;49.500;7.764;2022-08-19T01:37:28;29.77;;;26.07;;
7432;SDS011;32233;49.500;7.764;2022-08-19T01:39:56;28.37;;;23.67;;
7432;SDS011;32233;49.500;7.764;2022-08-19T01:42:23;30.27;;;23.93;;
7432;SDS011;32233;49.500;7.764;2022-08-19T01:44:56;32.10;;;26.17;;
7432;SDS011;32233;49.500;7.764;2022-08-19T01:47:22;30.77;;;25.00;;
7432;SDS011;32233;49.500;7.764;2022-08-19T01:49:49;28.73;;;23.67;;
7432;SDS011;32233;49.500;7.764;2022-08-19T01:52:15;28.03;;;23.33;;
7432;SDS011;32233;49.500;7.764;2022-08-19T01:54:41;28.40;;;23.37;;
7432;SDS011;32233;49.500;7.764;2022-08-19T01:57:08;27.97;;;24.13;;
7432;SDS011;32233;49.500;7.764;2022-08-19T01:59:36;27.77;;;24.37;;
7432;SDS011;32233;49.500;7.764;2022-08-19T02:02:05;30.40;;;23.60;;
7432;SDS011;32233;49.500;7.764;2022-08-19T02:04:33;26.33;;;23.60;;
7432;SDS011;32233;49.500;7.764;2022-08-19T02:07:00;29.57;;;25.23;;
7432;SDS011;32233;49.500;7.764;2022-08-19T02:09:26;30.17;;;25.00;;
7432;SDS011;32233;49.500;7.764;2022-08-19T02:11:53;29.17;;;24.10;;
7432;SDS011;32233;49.500;7.764;2022-08-19T02:14:19;30.33;;;24.20;;
7432;SDS011;32233;49.500;7.764;2022-08-19T02:16:46;29.17;;;24.47;;
7432;SDS011;32233;49.500;7.764;2022-08-19T02:19:12;30.40;;;25.17;;
7432;SDS011;32233;49.500;7.764;2022-08-19T02:21:39;28.87;;;24.20;;
7432;SDS011;32233;49.500;7.764;2022-08-19T02:24:05;29.73;;;24.83;;
7432;SDS011;32233;49.500;7.764;2022-08-19T02:26:32;30.43;;;25.27;;
7432;SDS011;32233;49.500;7.764;2022-08-19T02:28:59;28.90;;;24.63;;
7432;SDS011;32233;49.500;7.764;2022-08-19T02:31:26;27.90;;;24.80;;
7432;SDS011;32233;49.500;7.764;2022-08-19T02:33:54;28.90;;;24.33;;
7432;SDS011;32233;49.500;7.764;2022-08-19T02:36:22;28.27;;;24.00;;
7432;SDS011;32233;49.500;7.764;2022-08-19T02:38:50;31.93;;;24.93;;
7432;SDS011;32233;49.500;7.764;2022-08-19T02:41:22;29.50;;;24.33;;
7432;SDS011;32233;49.500;7.764;2022-08-19T02:43:52;29.10;;;24.73;;
7432;SDS011;32233;49.500;7.764;2022-08-19T02:46:39;27.97;;;23.87;;
7432;SDS011;32233;49.500;7.764;2022-08-19T02:49:06;28.33;;;24.10;;
7432;SDS011;32233;49.500;7.764;2022-08-19T02:51:34;30.43;;;25.57;;
7432;SDS011;32233;49.500;7.764;2022-08-19T02:54:01;31.03;;;25.77;;
7432;SDS011;32233;49.500;7.764;2022-08-19T02:56:28;30.23;;;25.70;;
7432;SDS011;32233;49.500;7.764;2022-08-19T02:58:54;29.13;;;24.47;;
7432;SDS011;32233;49.500;7.764;2022-08-19T03:01:25;30.73;;;24.97;;
7432;SDS011;32233;49.500;7.764;2022-08-19T03:03:53;29.73;;;24.90;;
7432;SDS011;32233;49.500;7.764;2022-08-19T03:06:20;28.93;;;24.70;;
7432;SDS011;32233;49.500;7.764;2022-08-19T03:08:47;31.20;;;26.17;;
7432;SDS011;32233;49.500;7.764;2022-08-19T03:11:16;30.87;;;26.13;;
7432;SDS011;32233;49.500;7.764;2022-08-19T03:13:43;30.30;;;25.53;;
7432;SDS011;32233;49.500;7.764;2022-08-19T03:16:10;32.60;;;26.90;;
7432;SDS011;32233;49.500;7.764;2022-08-19T03:18:37;29.10;;;25.07;;
7432;SDS011;32233;49.500;7.764;2022-08-19T03:21:03;29.33;;;25.80;;
7432;SDS011;32233;49.500;7.764;2022-08-19T03:23:30;29.23;;;24.07;;
7432;SDS011;32233;49.500;7.764;2022-08-19T03:25:56;29.40;;;25.83;;
7432;SDS011;32233;49.500;7.764;2022-08-19T03:28:41;33.27;;;26.47;;
7432;SDS011;32233;49.500;7.764;2022-08-19T03:31:17;29.53;;;25.13;;
7432;SDS011;32233;49.500;7.764;2022-08-19T03:34:04;30.20;;;24.67;;
7432;SDS011;32233;49.500;7.764;2022-08-19T03:36:33;28.77;;;24.77;;
7432;SDS011;32233;49.500;7.764;2022-08-19T03:39:00;31.20;;;25.57;;
7432;SDS011;32233;49.500;7.764;2022-08-19T03:41:27;30.73;;;26.67;;
7432;SDS011;32233;49.500;7.764;2022-08-19T03:44:14;30.83;;;25.03;;
7432;SDS011;32233;49.500;7.764;2022-08-19T03:46:44;30.63;;;25.93;;
7432;SDS011;32233;49.500;7.764;2022-08-19T03:49:10;28.60;;;25.47;;
7432;SDS011;32233;49.500;7.764;2022-08-19T03:51:40;27.83;;;24.83;;
7432;SDS011;32233;49.500;7.764;2022-08-19T03:54:07;28.00;;;25.03;;
7432;SDS011;32233;49.500;7.764;2022-08-19T03:56:35;27.43;;;24.40;;
7432;SDS011;32233;49.500;7.764;2022-08-19T03:59:03;27.20;;;24.17;;
7432;SDS011;32233;49.500;7.764;2022-08-19T04:01:29;31.03;;;26.13;;
7432;SDS011;32233;49.500;7.764;2022-08-19T04:04:01;28.40;;;24.70;;
7432;SDS011;32233;49.500;7.764;2022-08-19T04:06:31;28.43;;;24.87;;
7432;SDS011;32233;49.500;7.764;2022-08-19T04:08:59;27.27;;;24.30;;
7432;SDS011;32233;49.500;7.764;2022-08-19T04:11:26;29.90;;;24.97;;
7432;SDS011;32233;49.500;7.764;2022-08-19T04:14:10;27.93;;;24.43;;
7432;SDS011;32233;49.500;7.764;2022-08-19T04:16:36;28.23;;;24.63;;
7432;SDS011;32233;49.500;7.764;2022-08-19T04:19:04;31.93;;;25.77;;
7432;SDS011;32233;49.500;7.764;2022-08-19T04:21:30;30.33;;;26.20;;
7432;SDS011;32233;49.500;7.764;2022-08-19T04:23:57;29.30;;;25.40;;
7432;SDS011;32233;49.500;7.764;2022-08-19T04:26:26;31.43;;;25.83;;
7432;SDS011;32233;49.500;7.764;2022-08-19T04:28:53;31.00;;;25.93;;
7432;SDS011;32233;49.500;7.764;2022-08-19T04:31:24;30.63;;;24.97;;
7432;SDS011;32233;49.500;7.764;2022-08-19T04:33:55;29.40;;;24.87;;
7432;SDS011;32233;49.500;7.764;2022-08-19T04:36:24;29.03;;;24.93;;
7432;SDS011;32233;49.500;7.764;2022-08-19T04:38:53;28.57;;;24.97;;
7432;SDS011;32233;49.500;7.764;2022-08-19T04:41:20;27.70;;;24.53;;
7432;SDS011;32233;49.500;7.764;2022-08-19T04:44:05;26.60;;;23.80;;
7432;SDS011;32233;49.500;7.764;2022-08-19T04:46:33;28.80;;;23.70;;
7432;SDS011;32233;49.500;7.764;2022-08-19T04:49:06;28.53;;;24.47;;
7432;SDS011;32233;49.500;7.764;2022-08-19T04:51:40;30.47;;;26.10;;
7432;SDS011;32233;49.500;7.764;2022-08-19T04:54:06;29.43;;;24.10;;
7432;SDS011;32233;49.500;7.764;2022-08-19T04:56:33;28.17;;;24.10;;
7432;SDS011;32233;49.500;7.764;2022-08-19T04:59:00;25.83;;;23.03;;
7432;SDS011;32233;49.500;7.764;2022-08-19T05:01:30;27.47;;;23.33;;
7432;SDS011;32233;49.500;7.764;2022-08-19T05:04:01;28.13;;;24.17;;
7432;SDS011;32233;49.500;7.764;2022-08-19T05:06:30;30.63;;;25.00;;
7432;SDS011;32233;49.500;7.764;2022-08-19T05:09:00;24.93;;;22.23;;
7432;SDS011;32233;49.500;7.764;2022-08-19T05:11:31;24.77;;;21.93;;
7432;SDS011;32233;49.500;7.764;2022-08-19T05:13:58;24.23;;;21.63;;
7432;SDS011;32233;49.500;7.764;2022-08-19T05:16:25;27.40;;;22.23;;
7432;SDS011;32233;49.500;7.764;2022-08-19T05:18:52;24.60;;;22.00;;
7432;SDS011;32233;49.500;7.764;2022-08-19T05:21:38;23.73;;;21.23;;
7432;SDS011;32233;49.500;7.764;2022-08-19T05:24:23;26.13;;;22.40;;
7432;SDS011;32233;49.500;7.764;2022-08-19T05:26:50;27.93;;;23.07;;
7432;SDS011;32233;49.500;7.764;2022-08-19T05:29:18;28.10;;;23.40;;
7432;SDS011;32233;49.500;7.764;2022-08-19T05:31:47;29.53;;;24.60;;
7432;SDS011;32233;49.500;7.764;2022-08-19T05:34:16;27.43;;;23.63;;
7432;SDS011;32233;49.500;7.764;2022-08-19T05:36:45;29.27;;;23.73;;
7432;SDS011;32233;49.500;7.764;2022-08-19T05:39:14;26.70;;;22.83;;
7432;SDS011;32233;49.500;7.764;2022-08-19T05:41:42;24.47;;;21.93;;
7432;SDS011;32233;49.500;7.764;2022-08-19T05:44:09;23.87;;;20.97;;
7432;SDS011;32233;49.500;7.764;2022-08-19T05:46:36;22.93;;;20.43;;
7432;SDS011;32233;49.500;7.764;2022-08-19T05:49:04;23.07;;;20.23;;
7432;SDS011;32233;49.500;7.764;2022-08-19T05:51:32;21.40;;;19.10;;
7432;SDS011;32233;49.500;7.764;2022-08-19T05:53:58;22.30;;;19.47;;
7432;SDS011;32233;49.500;7.764;2022-08-19T05:56:25;21.97;;;19.53;;
7432;SDS011;32233;49.500;7.764;2022-08-19T05:58:51;24.87;;;21.43;;
7432;SDS011;32233;49.500;7.764;2022-08-19T06:01:19;26.63;;;21.00;;
7432;SDS011;32233;49.500;7.764;2022-08-19T06:03:46;23.33;;;20.13;;
7432;SDS011;32233;49.500;7.764;2022-08-19T06:06:14;21.13;;;18.83;;
7432;SDS011;32233;49.500;7.764;2022-08-19T06:08:42;20.87;;;18.67;;
7432;SDS011;32233;49.500;7.764;2022-08-19T06:13:43;22.60;;;19.77;;
7432;SDS011;32233;49.500;7.764;2022-08-19T06:16:09;22.53;;;19.17;;
7432;SDS011;32233;49.500;7.764;2022-08-19T06:18:36;20.30;;;18.13;;
7432;SDS011;32233;49.500;7.764;2022-08-19T06:21:03;20.03;;;17.93;;
7432;SDS011;32233;49.500;7.764;2022-08-19T06:23:30;20.47;;;17.47;;
7432;SDS011;32233;49.500;7.764;2022-08-19T06:25:56;20.10;;;18.07;;
7432;SDS011;32233;49.500;7.764;2022-08-19T06:28:23;17.43;;;15.60;;
7432;SDS011;32233;49.500;7.764;2022-08-19T06:30:49;16.70;;;15.00;;
7432;SDS011;32233;49.500;7.764;2022-08-19T06:33:17;15.63;;;14.03;;
7432;SDS011;32233;49.500;7.764;2022-08-19T06:35:43;15.77;;;14.27;;
7432;SDS011;32233;49.500;7.764;2022-08-19T06:38:15;15.57;;;14.07;;
7432;SDS011;32233;49.500;7.764;2022-08-19T06:40:41;14.83;;;13.33;;
7432;SDS011;32233;49.500;7.764;2022-08-19T06:43:13;14.77;;;13.30;;
7432;SDS011;32233;49.500;7.764;2022-08-19T06:45:44;14.53;;;13.03;;
7432;SDS011;32233;49.500;7.764;2022-08-19T06:48:13;12.93;;;11.60;;
7432;SDS011;32233;49.500;7.764;2022-08-19T06:50:39;16.20;;;12.43;;
7432;SDS011;32233;49.500;7.764;2022-08-19T06:53:06;13.50;;;11.33;;
7432;SDS011;32233;49.500;7.764;2022-08-19T06:55:32;13.50;;;12.10;;
7432;SDS011;32233;49.500;7.764;2022-08-19T06:58:01;16.03;;;12.97;;
7432;SDS011;32233;49.500;7.764;2022-08-19T07:00:29;15.03;;;12.90;;
7432;SDS011;32233;49.500;7.764;2022-08-19T07:02:56;12.37;;;11.13;;
7432;SDS011;32233;49.500;7.764;2022-08-19T07:05:29;13.00;;;11.67;;
7432;SDS011;32233;49.500;7.764;2022-08-19T07:07:58;13.20;;;12.00;;
7432;SDS011;32233;49.500;7.764;2022-08-19T07:10:30;16.63;;;12.27;;
7432;SDS011;32233;49.500;7.764;2022-08-19T07:12:58;13.07;;;11.90;;
7432;SDS011;32233;49.500;7.764;2022-08-19T07:15:25;13.10;;;11.67;;
7432;SDS011;32233;49.500;7.764;2022-08-19T07:17:51;12.87;;;11.50;;
7432;SDS011;32233;49.500;7.764;2022-08-19T07:20:18;13.53;;;12.13;;
7432;SDS011;32233;49.500;7.764;2022-08-19T07:22:44;13.87;;;12.47;;
7432;SDS011;32233;49.500;7.764;2022-08-19T07:25:11;11.77;;;10.57;;
7432;SDS011;32233;49.500;7.764;2022-08-19T07:27:39;13.27;;;11.90;;
7432;SDS011;32233;49.500;7.764;2022-08-19T07:30:06;12.13;;;10.77;;
7432;SDS011;32233;49.500;7.764;2022-08-19T07:32:37;11.33;;;10.33;;
7432;SDS011;32233;49.500;7.764;2022-08-19T07:35:04;12.30;;;11.10;;
7432;SDS011;32233;49.500;7.764;2022-08-19T07:37:32;10.93;;;9.93;;
7432;SDS011;32233;49.500;7.764;2022-08-19T07:39:59;11.60;;;10.40;;
7432;SDS011;32233;49.500;7.764;2022-08-19T07:42:26;11.20;;;9.40;;
7432;SDS011;32233;49.500;7.764;2022-08-19T07:44:55;11.47;;;9.83;;
7432;SDS011;32233;49.500;7.764;2022-08-19T07:47:22;12.17;;;10.17;;
7432;SDS011;32233;49.500;7.764;2022-08-19T07:50:09;10.93;;;9.90;;
7432;SDS011;32233;49.500;7.764;2022-08-19T07:52:36;10.63;;;9.60;;
7432;SDS011;32233;49.500;7.764;2022-08-19T07:55:05;13.07;;;11.33;;
7432;SDS011;32233;49.500;7.764;2022-08-19T07:57:52;12.13;;;11.13;;
7432;SDS011;32233;49.500;7.764;2022-08-19T08:00:19;12.83;;;11.37;;
7432;SDS011;32233;49.500;7.764;2022-08-19T08:02:50;12.00;;;10.90;;
7432;SDS011;32233;49.500;7.764;2022-08-19T08:05:16;11.17;;;10.17;;
7432;SDS011;32233;49.500;7.764;2022-08-19T08:08:05;10.70;;;9.80;;
7432;SDS011;32233;49.500;7.764;2022-08-19T08:11:09;11.80;;;10.70;;
7432;SDS011;32233;49.500;7.764;2022-08-19T08:13:40;12.47;;;11.27;;
7432;SDS011;32233;49.500;7.764;2022-08-19T08:16:07;13.23;;;11.40;;
7432;SDS011;32233;49.500;7.764;2022-08-19T08:18:39;12.83;;;11.73;;
7432;SDS011;32233;49.500;7.764;2022-08-19T08:21:08;13.63;;;12.13;;
7432;SDS011;32233;49.500;7.764;2022-08-19T08:23:35;13.07;;;11.77;;
7432;SDS011;32233;49.500;7.764;2022-08-19T08:26:04;15.97;;;14.37;;
7432;SDS011;32233;49.500;7.764;2022-08-19T08:28:31;15.40;;;13.97;;
7432;SDS011;32233;49.500;7.764;2022-08-19T08:30:58;15.13;;;13.53;;
7432;SDS011;32233;49.500;7.764;2022-08-19T08:33:26;17.80;;;16.00;;
7432;SDS011;32233;49.500;7.764;2022-08-19T08:36:06;14.87;;;13.37;;
7432;SDS011;32233;49.500;7.764;2022-08-19T08:38:32;14.53;;;13.20;;
7432;SDS011;32233;49.500;7.764;2022-08-19T08:43:52;17.27;;;15.53;;
7432;SDS011;32233;49.500;7.764;2022-08-19T08:51:36;22.67;;;19.37;;
7432;SDS011;32233;49.500;7.764;2022-08-19T08:54:04;19.10;;;17.10;;
7432;SDS011;32233;49.500;7.764;2022-08-19T08:56:35;20.80;;;17.30;;
7432;SDS011;32233;49.500;7.764;2022-08-19T08:59:10;17.20;;;15.40;;
7432;SDS011;32233;49.500;7.764;2022-08-19T09:01:38;18.50;;;16.60;;
7432;SDS011;32233;49.500;7.764;2022-08-19T09:04:06;23.13;;;19.77;;
7432;SDS011;32233;49.500;7.764;2022-08-19T09:06:49;24.03;;;20.60;;
7432;SDS011;32233;49.500;7.764;2022-08-19T09:09:40;15.53;;;14.03;;
7432;SDS011;32233;49.500;7.764;2022-08-19T09:12:16;20.80;;;18.17;;
7432;SDS011;32233;49.500;7.764;2022-08-19T09:14:53;19.97;;;17.57;;
7432;SDS011;32233;49.500;7.764;2022-08-19T09:17:23;14.10;;;12.70;;
7432;SDS011;32233;49.500;7.764;2022-08-19T09:22:37;20.37;;;18.27;;
7432;SDS011;32233;49.500;7.764;2022-08-19T09:25:06;17.07;;;15.33;;
7432;SDS011;32233;49.500;7.764;2022-08-19T09:27:33;17.50;;;15.73;;
7432;SDS011;32233;49.500;7.764;2022-08-19T09:30:09;17.97;;;16.00;;
7432;SDS011;32233;49.500;7.764;2022-08-19T09:32:36;16.20;;;13.93;;
7432;SDS011;32233;49.500;7.764;2022-08-19T09:35:05;14.43;;;13.00;;
7432;SDS011;32233;49.500;7.764;2022-08-19T09:37:34;10.57;;;9.67;;
7432;SDS011;32233;49.500;7.764;2022-08-19T09:40:01;11.43;;;10.43;;
7432;SDS011;32233;49.500;7.764;2022-08-19T09:42:27;9.17;;;8.30;;
7432;SDS011;32233;49.500;7.764;2022-08-19T09:45:00;12.00;;;10.83;;
7432;SDS011;32233;49.500;7.764;2022-08-19T09:47:30;10.63;;;9.73;;
7432;SDS011;32233;49.500;7.764;2022-08-19T09:49:56;9.57;;;8.77;;
7432;SDS011;32233;49.500;7.764;2022-08-19T09:52:24;7.33;;;6.70;;
7432;SDS011;32233;49.500;7.764;2022-08-19T09:54:58;7.53;;;6.83;;
7432;SDS011;32233;49.500;7.764;2022-08-19T09:57:24;7.00;;;6.40;;
7432;SDS011;32233;49.500;7.764;2022-08-19T09:59:51;6.63;;;6.13;;
7432;SDS011;32233;49.500;7.764;2022-08-19T10:02:17;5.90;;;5.50;;
7432;SDS011;32233;49.500;7.764;2022-08-19T10:04:47;5.77;;;5.27;;
7432;SDS011;32233;49.500;7.764;2022-08-19T10:07:32;6.10;;;5.60;;
7432;SDS011;32233;49.500;7.764;2022-08-19T10:10:03;6.07;;;5.57;;
7432;SDS011;32233;49.500;7.764;2022-08-19T10:12:30;5.87;;;5.57;;
7432;SDS011;32233;49.500;7.764;2022-08-19T10:14:56;6.57;;;6.03;;
7432;SDS011;32233;49.500;7.764;2022-08-19T10:17:23;5.33;;;4.90;;
7432;SDS011;32233;49.500;7.764;2022-08-19T10:19:58;5.43;;;5.03;;
7432;SDS011;32233;49.500;7.764;2022-08-19T10:22:25;5.37;;;4.97;;
7432;SDS011;32233;49.500;7.764;2022-08-19T10:24:52;4.80;;;4.50;;
7432;SDS011;32233;49.500;7.764;2022-08-19T10:27:18;5.23;;;4.90;;
7432;SDS011;32233;49.500;7.764;2022-08-19T10:29:45;5.13;;;4.73;;
7432;SDS011;32233;49.500;7.764;2022-08-19T10:32:11;5.70;;;5.30;;
7432;SDS011;32233;49.500;7.764;2022-08-19T10:34:39;5.13;;;4.63;;
7432;SDS011;32233;49.500;7.764;2022-08-19T10:37:14;5.33;;;4.93;;
7432;SDS011;32233;49.500;7.764;2022-08-19T10:39:56;5.03;;;4.53;;
7432;SDS011;32233;49.500;7.764;2022-08-19T10:42:23;4.87;;;4.50;;
7432;SDS011;32233;49.500;7.764;2022-08-19T10:44:49;4.43;;;4.13;;
7432;SDS011;32233;49.500;7.764;2022-08-19T10:47:17;4.63;;;4.33;;
7432;SDS011;32233;49.500;7.764;2022-08-19T10:49:54;4.47;;;4.13;;
7432;SDS011;32233;49.500;7.764;2022-08-19T10:52:40;4.83;;;4.43;;
7432;SDS011;32233;49.500;7.764;2022-08-19T10:55:16;4.83;;;4.43;;
7432;SDS011;32233;49.500;7.764;2022-08-19T10:58:01;4.60;;;4.30;;
7432;SDS011;32233;49.500;7.764;2022-08-19T11:00:28;5.30;;;4.80;;
7432;SDS011;32233;49.500;7.764;2022-08-19T11:02:57;5.67;;;5.23;;
7432;SDS011;32233;49.500;7.764;2022-08-19T11:05:23;4.87;;;4.57;;
7432;SDS011;32233;49.500;7.764;2022-08-19T11:07:50;4.60;;;4.30;;
7432;SDS011;32233;49.500;7.764;2022-08-19T11:10:18;5.50;;;5.03;;
7432;SDS011;32233;49.500;7.764;2022-08-19T11:12:47;5.30;;;5.00;;
7432;SDS011;32233;49.500;7.764;2022-08-19T11:15:14;5.60;;;5.20;;
7432;SDS011;32233;49.500;7.764;2022-08-19T11:17:40;5.70;;;5.40;;
7432;SDS011;32233;49.500;7.764;2022-08-19T11:20:08;5.93;;;5.23;;
7432;SDS011;32233;49.500;7.764;2022-08-19T11:22:35;4.80;;;4.50;;
7432;SDS011;32233;49.500;7.764;2022-08-19T11:25:07;5.40;;;5.10;;
7432;SDS011;32233;49.500;7.764;2022-08-19T11:27:33;4.93;;;4.53;;
7432;SDS011;32233;49.500;7.764;2022-08-19T11:30:03;4.23;;;4.03;;
7432;SDS011;32233;49.500;7.764;2022-08-19T11:32:33;5.07;;;4.70;;
7432;SDS011;32233;49.500;7.764;2022-08-19T11:35:00;4.67;;;4.10;;
7432;SDS011;32233;49.500;7.764;2022-08-19T11:37:27;5.60;;;5.03;;
7432;SDS011;32233;49.500;7.764;2022-08-19T11:39:53;5.05;;;4.75;;
7432;SDS011;32233;49.500;7.764;2022-08-19T11:42:20;5.20;;;4.80;;
7432;SDS011;32233;49.500;7.764;2022-08-19T11:45:05;4.60;;;4.30;;
7432;SDS011;32233;49.500;7.764;2022-08-19T11:47:32;4.07;;;3.78;;
7432;SDS011;32233;49.500;7.764;2022-08-19T11:49:59;4.60;;;4.40;;
7432;SDS011;32233;49.500;7.764;2022-08-19T11:52:25;3.95;;;3.80;;
7432;SDS011;32233;49.500;7.764;2022-08-19T11:54:52;4.63;;;4.28;;
7432;SDS011;32233;49.500;7.764;2022-08-19T11:57:19;4.45;;;3.88;;
7432;SDS011;32233;49.500;7.764;2022-08-19T11:59:50;3.90;;;3.60;;
7432;SDS011;32233;49.500;7.764;2022-08-19T12:02:17;3.95;;;3.75;;
7432;SDS011;32233;49.500;7.764;2022-08-19T12:04:43;5.75;;;4.10;;
7432;SDS011;32233;49.500;7.764;2022-08-19T12:07:10;4.15;;;3.95;;
7432;SDS011;32233;49.500;7.764;2022-08-19T12:09:36;4.40;;;4.10;;
7432;SDS011;32233;49.500;7.764;2022-08-19T12:12:08;3.72;;;3.53;;
7432;SDS011;32233;49.500;7.764;2022-08-19T12:14:34;4.80;;;4.47;;
7432;SDS011;32233;49.500;7.764;2022-08-19T12:17:01;5.10;;;4.70;;
7432;SDS011;32233;49.500;7.764;2022-08-19T12:19:30;4.47;;;4.22;;
7432;SDS011;32233;49.500;7.764;2022-08-19T12:22:00;5.38;;;4.97;;
7432;SDS011;32233;49.500;7.764;2022-08-19T12:24:32;4.38;;;4.07;;
7432;SDS011;32233;49.500;7.764;2022-08-19T12:26:58;4.93;;;4.50;;
7432;SDS011;32233;49.500;7.764;2022-08-19T12:29:28;5.97;;;5.57;;
7432;SDS011;32233;49.500;7.764;2022-08-19T12:31:56;5.05;;;4.75;;
7432;SDS011;32233;49.500;7.764;2022-08-19T12:34:30;4.80;;;4.50;;
7432;SDS011;32233;49.500;7.764;2022-08-19T12:36:58;4.68;;;4.47;;
7432;SDS011;32233;49.500;7.764;2022-08-19T12:39:24;5.00;;;4.78;;
7432;SDS011;32233;49.500;7.764;2022-08-19T12:41:51;5.45;;;5.05;;
7432;SDS011;32233;49.500;7.764;2022-08-19T12:44:20;4.60;;;4.25;;
7432;SDS011;32233;49.500;7.764;2022-08-19T12:46:54;4.25;;;3.80;;
7432;SDS011;32233;49.500;7.764;2022-08-19T12:49:21;4.40;;;4.20;;
7432;SDS011;32233;49.500;7.764;2022-08-19T12:52:08;3.80;;;3.60;;
7432;SDS011;32233;49.500;7.764;2022-08-19T12:54:35;4.30;;;3.95;;
7432;SDS011;32233;49.500;7.764;2022-08-19T12:57:05;3.95;;;3.75;;
7432;SDS011;32233;49.500;7.764;2022-08-19T12:59:32;4.15;;;3.78;;
7432;SDS011;32233;49.500;7.764;2022-08-19T13:01:59;4.10;;;3.90;;
7432;SDS011;32233;49.500;7.764;2022-08-19T13:04:26;4.53;;;4.32;;
7432;SDS011;32233;49.500;7.764;2022-08-19T13:06:52;4.53;;;4.32;;
7432;SDS011;32233;49.500;7.764;2022-08-19T13:09:19;5.30;;;5.00;;
7432;SDS011;32233;49.500;7.764;2022-08-19T13:11:45;4.95;;;4.60;;
7432;SDS011;32233;49.500;7.764;2022-08-19T13:14:12;4.57;;;4.32;;
7432;SDS011;32233;49.500;7.764;2022-08-19T13:16:38;4.60;;;4.30;;
7432;SDS011;32233;49.500;7.764;2022-08-19T13:19:05;4.60;;;4.30;;
7432;SDS011;32233;49.500;7.764;2022-08-19T13:21:31;4.57;;;4.25;;
7432;SDS011;32233;49.500;7.764;2022-08-19T13:23:58;4.90;;;4.50;;
7432;SDS011;32233;49.500;7.764;2022-08-19T13:26:24;5.50;;;5.05;;
7432;SDS011;32233;49.500;7.764;2022-08-19T13:28:51;6.07;;;5.53;;
7432;SDS011;32233;49.500;7.764;2022-08-19T13:31:36;5.15;;;4.75;;
7432;SDS011;32233;49.500;7.764;2022-08-19T13:34:32;5.43;;;4.87;;
7432;SDS011;32233;49.500;7.764;2022-08-19T13:37:00;5.70;;;5.20;;
7432;SDS011;32233;49.500;7.764;2022-08-19T13:39:29;5.53;;;5.13;;
7432;SDS011;32233;49.500;7.764;2022-08-19T13:41:56;5.60;;;5.30;;
7432;SDS011;32233;49.500;7.764;2022-08-19T13:44:22;5.47;;;5.17;;
7432;SDS011;32233;49.500;7.764;2022-08-19T13:46:49;5.30;;;4.90;;
7432;SDS011;32233;49.500;7.764;2022-08-19T13:49:19;4.80;;;4.40;;
7432;SDS011;32233;49.500;7.764;2022-08-19T13:51:46;5.30;;;4.80;;
7432;SDS011;32233;49.500;7.764;2022-08-19T13:54:12;5.03;;;4.73;;
7432;SDS011;32233;49.500;7.764;2022-08-19T13:56:40;4.80;;;4.50;;
7432;SDS011;32233;49.500;7.764;2022-08-19T13:59:07;4.47;;;4.17;;
7432;SDS011;32233;49.500;7.764;2022-08-19T14:01:33;4.73;;;4.47;;
7432;SDS011;32233;49.500;7.764;2022-08-19T14:04:01;5.20;;;4.80;;
7432;SDS011;32233;49.500;7.764;2022-08-19T14:06:27;4.80;;;4.50;;
7432;SDS011;32233;49.500;7.764;2022-08-19T14:08:54;5.07;;;4.77;;
7432;SDS011;32233;49.500;7.764;2022-08-19T14:11:20;4.93;;;4.40;;
7432;SDS011;32233;49.500;7.764;2022-08-19T14:13:49;4.63;;;4.33;;
7432;SDS011;32233;49.500;7.764;2022-08-19T14:16:16;4.77;;;4.50;;
7432;SDS011;32233;49.500;7.764;2022-08-19T14:18:42;6.03;;;5.63;;
7432;SDS011;32233;49.500;7.764;2022-08-19T14:21:13;4.97;;;4.67;;
7432;SDS011;32233;49.500;7.764;2022-08-19T14:23:40;5.43;;;4.93;;
7432;SDS011;32233;49.500;7.764;2022-08-19T14:26:16;5.23;;;4.90;;
7432;SDS011;32233;49.500;7.764;2022-08-19T14:28:42;4.90;;;4.60;;
7432;SDS011;32233;49.500;7.764;2022-08-19T14:31:10;5.20;;;4.80;;
7432;SDS011;32233;49.500;7.764;2022-08-19T14:33:36;5.70;;;5.10;;
7432;SDS011;32233;49.500;7.764;2022-08-19T14:36:03;5.53;;;5.13;;
7432;SDS011;32233;49.500;7.764;2022-08-19T14:38:30;5.03;;;4.73;;
7432;SDS011;32233;49.500;7.764;2022-08-19T14:41:05;5.13;;;4.73;;
7432;SDS011;32233;49.500;7.764;2022-08-19T14:43:32;4.83;;;4.43;;
7432;SDS011;32233;49.500;7.764;2022-08-19T14:45:58;4.70;;;4.40;;
7432;SDS011;32233;49.500;7.764;2022-08-19T14:48:26;5.23;;;4.83;;
7432;SDS011;32233;49.500;7.764;2022-08-19T14:50:54;6.37;;;5.77;;
7432;SDS011;32233;49.500;7.764;2022-08-19T14:53:20;5.97;;;4.63;;
7432;SDS011;32233;49.500;7.764;2022-08-19T14:55:47;5.10;;;4.70;;
7432;SDS011;32233;49.500;7.764;2022-08-19T14:58:14;5.33;;;5.03;;
7432;SDS011;32233;49.500;7.764;2022-08-19T15:00:55;6.10;;;5.70;;
7432;SDS011;32233;49.500;7.764;2022-08-19T15:03:21;5.70;;;5.30;;
7432;SDS011;32233;49.500;7.764;2022-08-19T15:05:47;5.80;;;5.30;;
7432;SDS011;32233;49.500;7.764;2022-08-19T15:08:14;7.30;;;5.53;;
7432;SDS011;32233;49.500;7.764;2022-08-19T15:10:40;6.07;;;5.57;;